Terminal Aerodrome Forecast
Issued by NWS

Home | Current Version | Previous Version | Text Only | Print | Product List | Glossary On
Versions: 1 2 3 4 5 6 7 8 9 10 11 12 13 14 15 16 17
000
FTUS43 KJKL 281739 AAA
TAFSJS
TAF AMD
KSJS 281739Z 2818/2918 23006KT P6SM BKN035
     FM282200 24006KT P6SM VCSH BKN090
     FM290600 24005KT P6SM VCSH BKN030
     FM290800 26004KT P6SM VCSH BKN015
     FM291400 26004KT P6SM SCT045=

USA.gov is the U.S. government's official web portal to all federal, state and local government web resources and services.